Current Conditions
Mostly Cloudy
Conditions



Pressure
1016.92 (mb) - 30.03 (inHG)
Visibility

6.2 (miles) - 10.0 (km)
   Temperature
12  °C
Temperature
11  °C
Dewpoint
94  %
 Humidity
   Wind Speed
12  mph
10  kts
19  km/h
5.4  m/s
   Wind Direction
N
45°
E
90°
135°
S
180°
225°
W
270°
315°
 160°

South South
East
   Airport Data
EGGD
Bristol Airport
Metar :EGGD 170020Z AUTO 16010KT 9999 BKN005 12/11 Q1017
Tue 17th May 01:20 am
   Raw Metar Info
Raw METAR is the most common format in the world for the transmission of observational weather data. It is highly standardized through the International Civil Aviation Organization (ICAO), which allows it to be understood throughout most of the world.
   API Info
Data Provided by
https://www.checkwx.com/weather/EGGD

Aviation Weather providing METAR, TAF, AIRMET, SIGMET and OUTLOOK Weather Reports
   © Info
CSS/SVG/PHP scripts were developed by weather34.com for use in the weather34 template © 2015-2022

Guide Info provided by Metar-Wikipedia